sensor_id;sensor_type;location;lat;lon;timestamp;temperature;humidity
35425;DHT22;21537;48.226;16.400;2022-08-01T00:00:13;21.50;99.90
35425;DHT22;21537;48.226;16.400;2022-08-01T00:02:39;21.40;99.90
35425;DHT22;21537;48.226;16.400;2022-08-01T00:05:07;21.50;99.90
35425;DHT22;21537;48.226;16.400;2022-08-01T00:07:34;21.50;99.90
35425;DHT22;21537;48.226;16.400;2022-08-01T00:10:00;21.40;99.90
35425;DHT22;21537;48.226;16.400;2022-08-01T00:12:26;21.30;99.90
35425;DHT22;21537;48.226;16.400;2022-08-01T00:14:52;21.30;99.90
35425;DHT22;21537;48.226;16.400;2022-08-01T00:17:18;21.20;99.90
35425;DHT22;21537;48.226;16.400;2022-08-01T00:19:43;21.10;99.90
35425;DHT22;21537;48.226;16.400;2022-08-01T00:22:09;21.20;99.90
35425;DHT22;21537;48.226;16.400;2022-08-01T00:24:35;21.10;99.90
35425;DHT22;21537;48.226;16.400;2022-08-01T00:27:01;21.10;99.90
35425;DHT22;21537;48.226;16.400;2022-08-01T00:29:27;21.10;99.90
35425;DHT22;21537;48.226;16.400;2022-08-01T00:31:52;21.10;99.90
35425;DHT22;21537;48.226;16.400;2022-08-01T00:34:18;21.00;99.90
35425;DHT22;21537;48.226;16.400;2022-08-01T00:36:44;21.00;99.90
35425;DHT22;21537;48.226;16.400;2022-08-01T00:39:10;21.00;99.90
35425;DHT22;21537;48.226;16.400;2022-08-01T00:41:35;21.00;99.90
35425;DHT22;21537;48.226;16.400;2022-08-01T00:44:04;21.10;99.90
35425;DHT22;21537;48.226;16.400;2022-08-01T00:46:30;21.20;99.90
35425;DHT22;21537;48.226;16.400;2022-08-01T00:48:57;21.20;99.90
35425;DHT22;21537;48.226;16.400;2022-08-01T00:51:23;21.30;99.90
35425;DHT22;21537;48.226;16.400;2022-08-01T00:53:50;21.30;99.90
35425;DHT22;21537;48.226;16.400;2022-08-01T00:56:17;21.30;99.90
35425;DHT22;21537;48.226;16.400;2022-08-01T00:58:43;21.40;99.90
35425;DHT22;21537;48.226;16.400;2022-08-01T01:01:10;21.40;99.90
35425;DHT22;21537;48.226;16.400;2022-08-01T01:03:35;21.50;99.90
35425;DHT22;21537;48.226;16.400;2022-08-01T01:08:46;21.50;99.90
35425;DHT22;21537;48.226;16.400;2022-08-01T01:11:20;21.50;99.90
35425;DHT22;21537;48.226;16.400;2022-08-01T01:13:53;21.60;99.90
35425;DHT22;21537;48.226;16.400;2022-08-01T01:16:22;21.60;99.90
35425;DHT22;21537;48.226;16.400;2022-08-01T01:18:57;21.60;99.90
35425;DHT22;21537;48.226;16.400;2022-08-01T01:24:08;21.60;99.90
35425;DHT22;21537;48.226;16.400;2022-08-01T01:29:45;21.50;99.90
35425;DHT22;21537;48.226;16.400;2022-08-01T01:35:05;21.40;99.90
35425;DHT22;21537;48.226;16.400;2022-08-01T01:37:33;21.40;99.90
35425;DHT22;21537;48.226;16.400;2022-08-01T01:40:01;21.40;99.90
35425;DHT22;21537;48.226;16.400;2022-08-01T01:42:30;21.30;99.90
35425;DHT22;21537;48.226;16.400;2022-08-01T01:44:57;21.40;99.90
35425;DHT22;21537;48.226;16.400;2022-08-01T01:47:24;21.30;99.90
35425;DHT22;21537;48.226;16.400;2022-08-01T01:49:52;21.30;99.90
35425;DHT22;21537;48.226;16.400;2022-08-01T01:52:19;21.40;99.90
35425;DHT22;21537;48.226;16.400;2022-08-01T01:54:48;21.40;99.90
35425;DHT22;21537;48.226;16.400;2022-08-01T01:57:15;21.40;99.90
35425;DHT22;21537;48.226;16.400;2022-08-01T01:59:42;21.50;99.90
35425;DHT22;21537;48.226;16.400;2022-08-01T02:02:10;21.50;99.90
35425;DHT22;21537;48.226;16.400;2022-08-01T02:04:42;21.50;99.90
35425;DHT22;21537;48.226;16.400;2022-08-01T02:07:12;21.50;99.90
35425;DHT22;21537;48.226;16.400;2022-08-01T02:09:40;21.50;99.90
35425;DHT22;21537;48.226;16.400;2022-08-01T02:12:07;21.50;99.90
35425;DHT22;21537;48.226;16.400;2022-08-01T02:14:35;21.50;99.90
35425;DHT22;21537;48.226;16.400;2022-08-01T02:17:02;21.60;99.90
35425;DHT22;21537;48.226;16.400;2022-08-01T02:19:33;21.60;99.90
35425;DHT22;21537;48.226;16.400;2022-08-01T02:22:04;21.60;99.90
35425;DHT22;21537;48.226;16.400;2022-08-01T02:27:10;21.70;99.90
35425;DHT22;21537;48.226;16.400;2022-08-01T02:29:50;21.60;99.90
35425;DHT22;21537;48.226;16.400;2022-08-01T02:32:30;21.60;99.90
35425;DHT22;21537;48.226;16.400;2022-08-01T02:34:57;21.60;99.90
35425;DHT22;21537;48.226;16.400;2022-08-01T02:37:26;21.60;99.90
35425;DHT22;21537;48.226;16.400;2022-08-01T02:39:55;21.60;99.90
35425;DHT22;21537;48.226;16.400;2022-08-01T02:42:23;21.60;99.90
35425;DHT22;21537;48.226;16.400;2022-08-01T02:44:50;21.60;99.90
35425;DHT22;21537;48.226;16.400;2022-08-01T02:47:19;21.60;99.90
35425;DHT22;21537;48.226;16.400;2022-08-01T02:49:47;21.70;99.90
35425;DHT22;21537;48.226;16.400;2022-08-01T02:52:16;21.70;99.90
35425;DHT22;21537;48.226;16.400;2022-08-01T02:54:48;21.70;99.90
35425;DHT22;21537;48.226;16.400;2022-08-01T02:57:16;21.80;99.90
35425;DHT22;21537;48.226;16.400;2022-08-01T02:59:44;21.80;99.90
35425;DHT22;21537;48.226;16.400;2022-08-01T03:02:12;21.80;99.90
35425;DHT22;21537;48.226;16.400;2022-08-01T03:04:39;21.70;99.90
35425;DHT22;21537;48.226;16.400;2022-08-01T03:07:08;21.80;99.90
35425;DHT22;21537;48.226;16.400;2022-08-01T03:09:40;21.80;99.90
35425;DHT22;21537;48.226;16.400;2022-08-01T03:12:12;21.80;99.90
35425;DHT22;21537;48.226;16.400;2022-08-01T03:14:41;21.80;99.90
35425;DHT22;21537;48.226;16.400;2022-08-01T03:17:08;21.70;99.90
35425;DHT22;21537;48.226;16.400;2022-08-01T03:19:36;21.70;99.90
35425;DHT22;21537;48.226;16.400;2022-08-01T03:22:06;21.70;99.90
35425;DHT22;21537;48.226;16.400;2022-08-01T03:24:33;21.70;99.90
35425;DHT22;21537;48.226;16.400;2022-08-01T03:27:01;21.70;99.90
35425;DHT22;21537;48.226;16.400;2022-08-01T03:29:28;21.80;99.90
35425;DHT22;21537;48.226;16.400;2022-08-01T03:31:56;21.80;99.90
35425;DHT22;21537;48.226;16.400;2022-08-01T03:34:22;21.80;99.90
35425;DHT22;21537;48.226;16.400;2022-08-01T03:36:59;21.80;99.90
35425;DHT22;21537;48.226;16.400;2022-08-01T03:39:31;21.80;99.90
35425;DHT22;21537;48.226;16.400;2022-08-01T03:42:03;21.90;99.90
35425;DHT22;21537;48.226;16.400;2022-08-01T03:44:32;21.90;99.90
35425;DHT22;21537;48.226;16.400;2022-08-01T03:47:01;21.90;99.90
35425;DHT22;21537;48.226;16.400;2022-08-01T03:49:33;21.90;99.90
35425;DHT22;21537;48.226;16.400;2022-08-01T03:52:06;21.90;99.90
35425;DHT22;21537;48.226;16.400;2022-08-01T03:54:36;22.10;99.90
35425;DHT22;21537;48.226;16.400;2022-08-01T03:57:04;22.20;99.90
35425;DHT22;21537;48.226;16.400;2022-08-01T03:59:33;22.20;99.90
35425;DHT22;21537;48.226;16.400;2022-08-01T04:02:01;22.10;99.90
35425;DHT22;21537;48.226;16.400;2022-08-01T04:04:28;22.00;99.90
35425;DHT22;21537;48.226;16.400;2022-08-01T04:06:54;22.00;99.90
35425;DHT22;21537;48.226;16.400;2022-08-01T04:09:21;22.00;99.90
35425;DHT22;21537;48.226;16.400;2022-08-01T04:11:50;21.90;99.90
35425;DHT22;21537;48.226;16.400;2022-08-01T04:14:16;21.80;99.90
35425;DHT22;21537;48.226;16.400;2022-08-01T04:16:42;21.80;99.90
35425;DHT22;21537;48.226;16.400;2022-08-01T04:19:08;21.80;99.90
35425;DHT22;21537;48.226;16.400;2022-08-01T04:21:34;21.70;99.90
35425;DHT22;21537;48.226;16.400;2022-08-01T04:24:09;21.70;99.90
35425;DHT22;21537;48.226;16.400;2022-08-01T04:26:36;21.70;99.90
35425;DHT22;21537;48.226;16.400;2022-08-01T04:29:03;21.80;99.90
35425;DHT22;21537;48.226;16.400;2022-08-01T04:31:32;21.70;99.90
35425;DHT22;21537;48.226;16.400;2022-08-01T04:33:59;21.80;99.90
35425;DHT22;21537;48.226;16.400;2022-08-01T04:36:28;21.70;99.90
35425;DHT22;21537;48.226;16.400;2022-08-01T04:38:59;21.70;99.90
35425;DHT22;21537;48.226;16.400;2022-08-01T04:41:26;21.60;99.90
35425;DHT22;21537;48.226;16.400;2022-08-01T04:43:52;21.70;99.90
35425;DHT22;21537;48.226;16.400;2022-08-01T04:46:20;21.80;99.90
35425;DHT22;21537;48.226;16.400;2022-08-01T04:48:47;21.80;99.90
35425;DHT22;21537;48.226;16.400;2022-08-01T04:51:15;22.00;99.90
35425;DHT22;21537;48.226;16.400;2022-08-01T04:53:42;22.20;99.90
35425;DHT22;21537;48.226;16.400;2022-08-01T04:56:08;22.30;99.90
35425;DHT22;21537;48.226;16.400;2022-08-01T04:58:34;22.40;99.90
35425;DHT22;21537;48.226;16.400;2022-08-01T05:01:00;22.50;99.90
35425;DHT22;21537;48.226;16.400;2022-08-01T05:03:26;22.70;99.90
35425;DHT22;21537;48.226;16.400;2022-08-01T05:05:52;22.70;99.90
35425;DHT22;21537;48.226;16.400;2022-08-01T05:08:17;22.80;99.90
35425;DHT22;21537;48.226;16.400;2022-08-01T05:10:43;22.80;99.90
35425;DHT22;21537;48.226;16.400;2022-08-01T05:13:09;22.80;99.90
35425;DHT22;21537;48.226;16.400;2022-08-01T05:15:35;22.80;99.90
35425;DHT22;21537;48.226;16.400;2022-08-01T05:18:04;22.80;99.90
35425;DHT22;21537;48.226;16.400;2022-08-01T05:20:30;22.80;99.90
35425;DHT22;21537;48.226;16.400;2022-08-01T05:22:57;22.70;99.90
35425;DHT22;21537;48.226;16.400;2022-08-01T05:25:23;22.80;99.90
35425;DHT22;21537;48.226;16.400;2022-08-01T05:27:49;22.80;99.90
35425;DHT22;21537;48.226;16.400;2022-08-01T05:30:15;22.90;99.90
35425;DHT22;21537;48.226;16.400;2022-08-01T05:32:41;23.00;99.90
35425;DHT22;21537;48.226;16.400;2022-08-01T05:35:08;23.00;99.90
35425;DHT22;21537;48.226;16.400;2022-08-01T05:37:34;23.10;99.90
35425;DHT22;21537;48.226;16.400;2022-08-01T05:40:00;23.10;99.90
35425;DHT22;21537;48.226;16.400;2022-08-01T05:42:26;23.10;99.90
35425;DHT22;21537;48.226;16.400;2022-08-01T05:44:52;23.20;99.90
35425;DHT22;21537;48.226;16.400;2022-08-01T05:47:18;23.40;99.90
35425;DHT22;21537;48.226;16.400;2022-08-01T05:49:44;23.40;99.90
35425;DHT22;21537;48.226;16.400;2022-08-01T05:52:10;23.50;99.90
35425;DHT22;21537;48.226;16.400;2022-08-01T05:54:37;23.60;99.90
35425;DHT22;21537;48.226;16.400;2022-08-01T05:57:03;23.70;99.90
35425;DHT22;21537;48.226;16.400;2022-08-01T05:59:29;23.90;99.90
35425;DHT22;21537;48.226;16.400;2022-08-01T06:01:55;24.10;99.90
35425;DHT22;21537;48.226;16.400;2022-08-01T06:04:21;24.20;99.90
35425;DHT22;21537;48.226;16.400;2022-08-01T06:06:46;24.30;99.90
35425;DHT22;21537;48.226;16.400;2022-08-01T06:09:12;24.40;99.70
35425;DHT22;21537;48.226;16.400;2022-08-01T06:11:38;24.40;99.40
35425;DHT22;21537;48.226;16.400;2022-08-01T06:14:04;24.40;99.50
35425;DHT22;21537;48.226;16.400;2022-08-01T06:16:30;24.50;99.40
35425;DHT22;21537;48.226;16.400;2022-08-01T06:18:56;24.50;99.10
35425;DHT22;21537;48.226;16.400;2022-08-01T06:21:21;24.70;99.10
35425;DHT22;21537;48.226;16.400;2022-08-01T06:23:47;24.90;98.60
35425;DHT22;21537;48.226;16.400;2022-08-01T06:26:13;25.10;97.90
35425;DHT22;21537;48.226;16.400;2022-08-01T06:28:39;25.10;97.60
35425;DHT22;21537;48.226;16.400;2022-08-01T06:31:05;25.20;97.60
35425;DHT22;21537;48.226;16.400;2022-08-01T06:33:31;25.20;97.40
35425;DHT22;21537;48.226;16.400;2022-08-01T06:35:56;25.20;97.40
35425;DHT22;21537;48.226;16.400;2022-08-01T06:38:22;25.20;97.30
35425;DHT22;21537;48.226;16.400;2022-08-01T06:40:49;25.30;97.40
35425;DHT22;21537;48.226;16.400;2022-08-01T06:43:15;25.30;97.10
35425;DHT22;21537;48.226;16.400;2022-08-01T06:45:41;25.30;97.10
35425;DHT22;21537;48.226;16.400;2022-08-01T06:48:07;25.40;97.20
35425;DHT22;21537;48.226;16.400;2022-08-01T06:50:33;25.40;97.20
35425;DHT22;21537;48.226;16.400;2022-08-01T06:53:01;25.40;97.10
35425;DHT22;21537;48.226;16.400;2022-08-01T06:55:27;25.60;97.10
35425;DHT22;21537;48.226;16.400;2022-08-01T06:57:53;25.60;96.70
35425;DHT22;21537;48.226;16.400;2022-08-01T07:00:21;25.70;96.80
35425;DHT22;21537;48.226;16.400;2022-08-01T07:02:57;26.00;96.80
35425;DHT22;21537;48.226;16.400;2022-08-01T07:05:25;26.20;96.90
35425;DHT22;21537;48.226;16.400;2022-08-01T07:07:51;26.50;96.60
35425;DHT22;21537;48.226;16.400;2022-08-01T07:10:17;26.80;95.90
35425;DHT22;21537;48.226;16.400;2022-08-01T07:12:43;27.00;95.20
35425;DHT22;21537;48.226;16.400;2022-08-01T07:15:09;27.10;95.30
35425;DHT22;21537;48.226;16.400;2022-08-01T07:17:40;27.10;95.30
35425;DHT22;21537;48.226;16.400;2022-08-01T07:20:11;27.30;95.20
35425;DHT22;21537;48.226;16.400;2022-08-01T07:22:37;27.30;95.20
35425;DHT22;21537;48.226;16.400;2022-08-01T07:25:05;27.40;94.80
35425;DHT22;21537;48.226;16.400;2022-08-01T07:27:31;27.50;94.70
35425;DHT22;21537;48.226;16.400;2022-08-01T07:29:57;27.50;94.30
35425;DHT22;21537;48.226;16.400;2022-08-01T07:32:23;27.60;94.10
35425;DHT22;21537;48.226;16.400;2022-08-01T07:34:48;27.40;94.10
35425;DHT22;21537;48.226;16.400;2022-08-01T07:37:17;27.40;93.90
35425;DHT22;21537;48.226;16.400;2022-08-01T07:39:42;27.30;94.00
35425;DHT22;21537;48.226;16.400;2022-08-01T07:42:08;27.20;93.90
35425;DHT22;21537;48.226;16.400;2022-08-01T07:44:35;27.20;94.30
35425;DHT22;21537;48.226;16.400;2022-08-01T07:47:01;27.10;94.10
35425;DHT22;21537;48.226;16.400;2022-08-01T07:49:27;26.90;94.20
35425;DHT22;21537;48.226;16.400;2022-08-01T07:51:52;26.80;94.50
35425;DHT22;21537;48.226;16.400;2022-08-01T07:54:19;26.70;95.00
35425;DHT22;21537;48.226;16.400;2022-08-01T07:56:45;26.50;95.20
35425;DHT22;21537;48.226;16.400;2022-08-01T07:59:11;26.40;95.50
35425;DHT22;21537;48.226;16.400;2022-08-01T08:01:37;26.30;95.60
35425;DHT22;21537;48.226;16.400;2022-08-01T08:04:03;26.10;95.80
35425;DHT22;21537;48.226;16.400;2022-08-01T08:06:28;25.90;95.80
35425;DHT22;21537;48.226;16.400;2022-08-01T08:08:54;25.90;96.10
35425;DHT22;21537;48.226;16.400;2022-08-01T08:11:20;25.80;96.10
35425;DHT22;21537;48.226;16.400;2022-08-01T08:13:46;25.90;96.10
35425;DHT22;21537;48.226;16.400;2022-08-01T08:16:11;26.00;95.90
35425;DHT22;21537;48.226;16.400;2022-08-01T08:18:37;25.90;95.90
35425;DHT22;21537;48.226;16.400;2022-08-01T08:21:03;26.00;95.80
35425;DHT22;21537;48.226;16.400;2022-08-01T08:23:29;26.00;96.00
35425;DHT22;21537;48.226;16.400;2022-08-01T08:26:14;26.00;96.00
35425;DHT22;21537;48.226;16.400;2022-08-01T08:28:44;26.10;96.00
35425;DHT22;21537;48.226;16.400;2022-08-01T08:31:12;26.10;95.70
35425;DHT22;21537;48.226;16.400;2022-08-01T08:33:38;26.10;95.60
35425;DHT22;21537;48.226;16.400;2022-08-01T08:36:04;26.30;95.50
35425;DHT22;21537;48.226;16.400;2022-08-01T08:38:30;26.50;95.40
35425;DHT22;21537;48.226;16.400;2022-08-01T08:41:37;26.70;94.70
35425;DHT22;21537;48.226;16.400;2022-08-01T08:44:05;27.10;94.00
35425;DHT22;21537;48.226;16.400;2022-08-01T08:46:32;27.30;94.00
35425;DHT22;21537;48.226;16.400;2022-08-01T08:49:02;27.10;93.30
35425;DHT22;21537;48.226;16.400;2022-08-01T08:51:31;26.90;93.90
35425;DHT22;21537;48.226;16.400;2022-08-01T08:54:00;26.90;93.90
35425;DHT22;21537;48.226;16.400;2022-08-01T08:56:28;26.80;94.20
35425;DHT22;21537;48.226;16.400;2022-08-01T08:59:00;26.70;94.50
35425;DHT22;21537;48.226;16.400;2022-08-01T09:01:27;26.70;93.90
35425;DHT22;21537;48.226;16.400;2022-08-01T09:03:53;26.70;94.20
35425;DHT22;21537;48.226;16.400;2022-08-01T09:06:19;26.90;93.80
35425;DHT22;21537;48.226;16.400;2022-08-01T09:08:45;27.20;93.30
35425;DHT22;21537;48.226;16.400;2022-08-01T09:11:11;27.30;93.40
35425;DHT22;21537;48.226;16.400;2022-08-01T09:13:37;27.30;93.60
35425;DHT22;21537;48.226;16.400;2022-08-01T09:16:05;27.50;93.60
35425;DHT22;21537;48.226;16.400;2022-08-01T09:18:40;27.50;93.30
35425;DHT22;21537;48.226;16.400;2022-08-01T09:21:24;27.60;93.40
35425;DHT22;21537;48.226;16.400;2022-08-01T09:23:54;27.80;92.60
35425;DHT22;21537;48.226;16.400;2022-08-01T09:26:40;27.90;92.60
35425;DHT22;21537;48.226;16.400;2022-08-01T09:29:07;28.20;92.20
35425;DHT22;21537;48.226;16.400;2022-08-01T09:31:41;28.30;92.00
35425;DHT22;21537;48.226;16.400;2022-08-01T09:34:07;28.80;91.70
35425;DHT22;21537;48.226;16.400;2022-08-01T09:39:19;29.30;90.90
35425;DHT22;21537;48.226;16.400;2022-08-01T09:41:45;29.70;90.70
35425;DHT22;21537;48.226;16.400;2022-08-01T09:44:11;30.20;90.50
35425;DHT22;21537;48.226;16.400;2022-08-01T09:46:55;30.60;90.20
35425;DHT22;21537;48.226;16.400;2022-08-01T09:49:32;30.90;87.30
35425;DHT22;21537;48.226;16.400;2022-08-01T09:52:16;31.40;86.80
35425;DHT22;21537;48.226;16.400;2022-08-01T09:54:44;31.50;85.60
35425;DHT22;21537;48.226;16.400;2022-08-01T09:57:18;31.30;85.10
35425;DHT22;21537;48.226;16.400;2022-08-01T09:59:46;31.20;84.50
35425;DHT22;21537;48.226;16.400;2022-08-01T10:02:14;30.80;84.60
35425;DHT22;21537;48.226;16.400;2022-08-01T10:04:48;31.10;84.80
35425;DHT22;21537;48.226;16.400;2022-08-01T10:07:15;32.00;82.40
35425;DHT22;21537;48.226;16.400;2022-08-01T10:09:42;32.40;81.20
35425;DHT22;21537;48.226;16.400;2022-08-01T10:12:10;32.20;80.90
35425;DHT22;21537;48.226;16.400;2022-08-01T10:14:37;32.00;81.20
35425;DHT22;21537;48.226;16.400;2022-08-01T10:17:06;32.10;80.60
35425;DHT22;21537;48.226;16.400;2022-08-01T10:19:35;32.40;80.20
35425;DHT22;21537;48.226;16.400;2022-08-01T10:22:07;32.30;80.70
35425;DHT22;21537;48.226;16.400;2022-08-01T10:24:37;33.00;80.10
35425;DHT22;21537;48.226;16.400;2022-08-01T10:27:08;33.10;79.80
35425;DHT22;21537;48.226;16.400;2022-08-01T10:29:50;33.00;80.20
35425;DHT22;21537;48.226;16.400;2022-08-01T10:32:17;32.70;80.80
35425;DHT22;21537;48.226;16.400;2022-08-01T10:34:44;32.30;81.10
35425;DHT22;21537;48.226;16.400;2022-08-01T10:37:12;32.00;82.00
35425;DHT22;21537;48.226;16.400;2022-08-01T10:39:40;32.20;80.80
35425;DHT22;21537;48.226;16.400;2022-08-01T10:42:06;32.60;80.40
35425;DHT22;21537;48.226;16.400;2022-08-01T10:44:36;34.30;77.30
35425;DHT22;21537;48.226;16.400;2022-08-01T10:47:12;35.90;74.60
35425;DHT22;21537;48.226;16.400;2022-08-01T10:50:06;37.80;69.90
35425;DHT22;21537;48.226;16.400;2022-08-01T10:52:32;39.30;65.80
35425;DHT22;21537;48.226;16.400;2022-08-01T10:55:08;40.00;63.90
35425;DHT22;21537;48.226;16.400;2022-08-01T10:57:46;40.40;61.60
35425;DHT22;21537;48.226;16.400;2022-08-01T11:00:20;41.70;58.30
35425;DHT22;21537;48.226;16.400;2022-08-01T11:03:02;42.40;56.70
35425;DHT22;21537;48.226;16.400;2022-08-01T11:05:35;43.30;55.20
35425;DHT22;21537;48.226;16.400;2022-08-01T11:08:10;43.60;53.70
35425;DHT22;21537;48.226;16.400;2022-08-01T11:10:41;44.30;52.90
35425;DHT22;21537;48.226;16.400;2022-08-01T11:13:11;44.10;51.70
35425;DHT22;21537;48.226;16.400;2022-08-01T11:15:41;43.30;51.80
35425;DHT22;21537;48.226;16.400;2022-08-01T11:20:59;40.60;53.40
35425;DHT22;21537;48.226;16.400;2022-08-01T11:23:27;39.60;54.60
35425;DHT22;21537;48.226;16.400;2022-08-01T11:28:24;38.00;56.00
35425;DHT22;21537;48.226;16.400;2022-08-01T11:31:24;38.10;55.80
35425;DHT22;21537;48.226;16.400;2022-08-01T11:41:33;36.20;57.60
35425;DHT22;21537;48.226;16.400;2022-08-01T11:44:14;36.00;58.00
35425;DHT22;21537;48.226;16.400;2022-08-01T11:47:03;36.10;57.80
35425;DHT22;21537;48.226;16.400;2022-08-01T11:52:08;36.50;57.00
35425;DHT22;21537;48.226;16.400;2022-08-01T11:57:13;35.80;58.50
35425;DHT22;21537;48.226;16.400;2022-08-01T11:59:48;35.20;59.10
35425;DHT22;21537;48.226;16.400;2022-08-01T12:02:18;34.80;59.60
35425;DHT22;21537;48.226;16.400;2022-08-01T12:04:56;34.50;60.60
35425;DHT22;21537;48.226;16.400;2022-08-01T12:07:24;34.40;61.50
35425;DHT22;21537;48.226;16.400;2022-08-01T12:12:32;34.00;62.10
35425;DHT22;21537;48.226;16.400;2022-08-01T12:15:00;33.80;61.70
35425;DHT22;21537;48.226;16.400;2022-08-01T12:17:39;33.80;61.80
35425;DHT22;21537;48.226;16.400;2022-08-01T12:20:11;33.50;62.30
35425;DHT22;21537;48.226;16.400;2022-08-01T12:22:38;32.60;64.20
35425;DHT22;21537;48.226;16.400;2022-08-01T12:25:15;31.80;65.50
35425;DHT22;21537;48.226;16.400;2022-08-01T12:27:42;31.10;67.30
35425;DHT22;21537;48.226;16.400;2022-08-01T12:30:21;30.40;68.60
35425;DHT22;21537;48.226;16.400;2022-08-01T12:32:51;29.70;70.50
35425;DHT22;21537;48.226;16.400;2022-08-01T12:35:23;29.20;71.40
35425;DHT22;21537;48.226;16.400;2022-08-01T12:37:50;28.80;73.30
35425;DHT22;21537;48.226;16.400;2022-08-01T12:42:48;28.50;74.30
35425;DHT22;21537;48.226;16.400;2022-08-01T12:45:21;28.50;72.50
35425;DHT22;21537;48.226;16.400;2022-08-01T12:47:48;28.30;69.40
35425;DHT22;21537;48.226;16.400;2022-08-01T12:50:19;28.10;69.70
35425;DHT22;21537;48.226;16.400;2022-08-01T12:52:46;28.20;70.20
35425;DHT22;21537;48.226;16.400;2022-08-01T12:55:20;28.10;70.00
35425;DHT22;21537;48.226;16.400;2022-08-01T12:57:48;27.90;71.50
35425;DHT22;21537;48.226;16.400;2022-08-01T13:00:23;27.80;72.10
35425;DHT22;21537;48.226;16.400;2022-08-01T13:03:00;27.80;72.90
35425;DHT22;21537;48.226;16.400;2022-08-01T13:05:26;27.90;73.80
35425;DHT22;21537;48.226;16.400;2022-08-01T13:07:53;28.30;74.60
35425;DHT22;21537;48.226;16.400;2022-08-01T13:10:30;28.60;75.30
35425;DHT22;21537;48.226;16.400;2022-08-01T13:12:59;29.10;75.10
35425;DHT22;21537;48.226;16.400;2022-08-01T13:15:29;30.50;73.50
35425;DHT22;21537;48.226;16.400;2022-08-01T13:18:00;31.20;71.40
35425;DHT22;21537;48.226;16.400;2022-08-01T13:20:32;30.90;71.40
35425;DHT22;21537;48.226;16.400;2022-08-01T13:29:36;32.40;70.00
35425;DHT22;21537;48.226;16.400;2022-08-01T13:32:20;33.60;68.30
35425;DHT22;21537;48.226;16.400;2022-08-01T13:35:09;32.80;69.30
35425;DHT22;21537;48.226;16.400;2022-08-01T13:37:53;33.90;68.40
35425;DHT22;21537;48.226;16.400;2022-08-01T13:40:28;35.10;66.90
35425;DHT22;21537;48.226;16.400;2022-08-01T13:42:54;36.60;64.40
35425;DHT22;21537;48.226;16.400;2022-08-01T13:45:23;36.30;63.70
35425;DHT22;21537;48.226;16.400;2022-08-01T13:47:49;36.40;63.10
35425;DHT22;21537;48.226;16.400;2022-08-01T13:50:17;37.40;60.80
35425;DHT22;21537;48.226;16.400;2022-08-01T13:52:48;38.20;59.50
35425;DHT22;21537;48.226;16.400;2022-08-01T13:55:17;38.60;59.20
35425;DHT22;21537;48.226;16.400;2022-08-01T13:57:46;39.40;57.90
35425;DHT22;21537;48.226;16.400;2022-08-01T14:00:18;39.60;57.00
35425;DHT22;21537;48.226;16.400;2022-08-01T14:02:47;37.70;58.10
35425;DHT22;21537;48.226;16.400;2022-08-01T14:05:16;36.80;59.80
35425;DHT22;21537;48.226;16.400;2022-08-01T14:07:42;37.00;60.20
35425;DHT22;21537;48.226;16.400;2022-08-01T14:10:10;37.60;59.30
35425;DHT22;21537;48.226;16.400;2022-08-01T14:12:35;37.20;59.70
35425;DHT22;21537;48.226;16.400;2022-08-01T14:15:01;37.50;60.00
35425;DHT22;21537;48.226;16.400;2022-08-01T14:17:27;37.80;59.20
35425;DHT22;21537;48.226;16.400;2022-08-01T14:19:56;37.90;59.00
35425;DHT22;21537;48.226;16.400;2022-08-01T14:22:28;38.90;58.50
35425;DHT22;21537;48.226;16.400;2022-08-01T14:24:54;39.50;57.50
35425;DHT22;21537;48.226;16.400;2022-08-01T14:27:22;39.10;57.30
35425;DHT22;21537;48.226;16.400;2022-08-01T14:29:48;38.00;58.10
35425;DHT22;21537;48.226;16.400;2022-08-01T14:32:26;36.50;59.00
35425;DHT22;21537;48.226;16.400;2022-08-01T14:34:52;35.20;60.60
35425;DHT22;21537;48.226;16.400;2022-08-01T14:37:18;34.10;61.90
35425;DHT22;21537;48.226;16.400;2022-08-01T14:39:44;33.30;62.70
35425;DHT22;21537;48.226;16.400;2022-08-01T14:42:10;32.70;63.30
35425;DHT22;21537;48.226;16.400;2022-08-01T14:44:35;32.20;63.60
35425;DHT22;21537;48.226;16.400;2022-08-01T14:47:01;32.10;64.00
35425;DHT22;21537;48.226;16.400;2022-08-01T14:49:27;32.50;63.50
35425;DHT22;21537;48.226;16.400;2022-08-01T14:51:53;33.40;62.60
35425;DHT22;21537;48.226;16.400;2022-08-01T14:54:19;33.70;61.90
35425;DHT22;21537;48.226;16.400;2022-08-01T14:56:45;33.30;62.30
35425;DHT22;21537;48.226;16.400;2022-08-01T14:59:11;32.80;62.70
35425;DHT22;21537;48.226;16.400;2022-08-01T15:01:37;32.30;63.70
35425;DHT22;21537;48.226;16.400;2022-08-01T15:04:02;31.90;64.20
35425;DHT22;21537;48.226;16.400;2022-08-01T15:06:28;31.30;64.70
35425;DHT22;21537;48.226;16.400;2022-08-01T15:08:54;31.00;65.40
35425;DHT22;21537;48.226;16.400;2022-08-01T15:11:20;32.20;64.80
35425;DHT22;21537;48.226;16.400;2022-08-01T15:13:46;34.10;62.50
35425;DHT22;21537;48.226;16.400;2022-08-01T15:16:32;35.10;60.50
35425;DHT22;21537;48.226;16.400;2022-08-01T15:18:58;35.80;59.60
35425;DHT22;21537;48.226;16.400;2022-08-01T15:21:24;36.40;59.30
35425;DHT22;21537;48.226;16.400;2022-08-01T15:23:50;37.50;58.30
35425;DHT22;21537;48.226;16.400;2022-08-01T15:26:16;37.80;57.80
35425;DHT22;21537;48.226;16.400;2022-08-01T15:28:42;37.10;58.00
35425;DHT22;21537;48.226;16.400;2022-08-01T15:31:07;35.20;59.90
35425;DHT22;21537;48.226;16.400;2022-08-01T15:33:33;33.80;62.00
35425;DHT22;21537;48.226;16.400;2022-08-01T15:36:00;32.50;63.90
35425;DHT22;21537;48.226;16.400;2022-08-01T15:38:26;31.80;65.30
35425;DHT22;21537;48.226;16.400;2022-08-01T15:40:51;32.00;66.00
35425;DHT22;21537;48.226;16.400;2022-08-01T15:43:17;33.50;64.40
35425;DHT22;21537;48.226;16.400;2022-08-01T15:45:43;34.70;63.10
35425;DHT22;21537;48.226;16.400;2022-08-01T15:48:09;35.50;62.10
35425;DHT22;21537;48.226;16.400;2022-08-01T15:50:35;35.90;61.50
35425;DHT22;21537;48.226;16.400;2022-08-01T15:53:04;35.00;62.30
35425;DHT22;21537;48.226;16.400;2022-08-01T15:55:30;34.20;63.40
35425;DHT22;21537;48.226;16.400;2022-08-01T15:57:56;33.30;65.10
35425;DHT22;21537;48.226;16.400;2022-08-01T16:00:22;32.40;66.50
35425;DHT22;21537;48.226;16.400;2022-08-01T16:02:48;31.70;68.00
35425;DHT22;21537;48.226;16.400;2022-08-01T16:05:13;31.40;68.70
35425;DHT22;21537;48.226;16.400;2022-08-01T16:07:39;31.30;69.00
35425;DHT22;21537;48.226;16.400;2022-08-01T16:10:06;31.10;69.50